createdAt,value
2018-07-04T00:02:35.334Z,18.73
2018-07-04T00:05:22.239Z,17.37
2018-07-04T00:08:08.781Z,18.87
2018-07-04T00:10:55.843Z,17.13
2018-07-04T00:13:42.957Z,16.93
2018-07-04T00:16:29.935Z,17.70
2018-07-04T00:19:16.715Z,16.40
2018-07-04T00:22:03.807Z,16.90
2018-07-04T00:24:50.370Z,18.23
2018-07-04T00:27:37.334Z,16.97
2018-07-04T00:30:24.024Z,16.83
2018-07-04T00:33:11.350Z,17.57
2018-07-04T00:35:58.127Z,17.93
2018-07-04T00:38:44.967Z,17.03
2018-07-04T00:41:31.711Z,18.63
2018-07-04T00:44:18.711Z,17.93
2018-07-04T00:47:05.455Z,18.20
2018-07-04T00:49:52.434Z,17.50
2018-07-04T00:52:39.035Z,17.97
2018-07-04T00:55:25.706Z,18.10
2018-07-04T00:58:12.356Z,17.93
2018-07-04T01:00:59.025Z,18.43
2018-07-04T01:03:45.626Z,17.90
2018-07-04T01:06:32.311Z,18.60
2018-07-04T01:09:19.315Z,16.43
2018-07-04T01:12:05.992Z,17.70
2018-07-04T01:14:53.233Z,18.23
2018-07-04T01:17:39.870Z,17.60
2018-07-04T01:20:31.150Z,19.37
2018-07-04T01:23:17.827Z,19.73
2018-07-04T01:26:04.966Z,20.10
2018-07-04T01:28:51.618Z,19.80
2018-07-04T01:31:38.713Z,19.73
2018-07-04T01:34:25.460Z,19.70
2018-07-04T01:37:12.443Z,20.33
2018-07-04T01:39:59.387Z,21.10
2018-07-04T01:42:46.470Z,20.87
2018-07-04T01:45:33.209Z,20.63
2018-07-04T01:48:20.473Z,20.00
2018-07-04T01:51:07.242Z,18.23
2018-07-04T01:53:53.963Z,18.93
2018-07-04T01:56:40.882Z,19.00
2018-07-04T01:59:27.697Z,19.93
2018-07-04T02:02:14.779Z,19.90
2018-07-04T02:05:01.604Z,18.83
2018-07-04T02:07:48.599Z,20.37
2018-07-04T02:10:35.471Z,23.17
2018-07-04T02:13:22.234Z,21.67
2018-07-04T02:16:08.874Z,22.50
2018-07-04T02:18:55.936Z,22.37
2018-07-04T02:21:42.627Z,23.80
2018-07-04T02:24:29.342Z,19.67
2018-07-04T02:27:16.374Z,20.60
2018-07-04T02:30:03.607Z,19.43
2018-07-04T02:32:50.399Z,18.23
2018-07-04T02:35:37.538Z,20.03
2018-07-04T02:38:24.534Z,18.53
2018-07-04T02:41:11.870Z,20.43
2018-07-04T02:43:58.496Z,19.73
2018-07-04T02:46:45.604Z,20.53
2018-07-04T02:49:32.350Z,19.93
2018-07-04T02:52:19.642Z,20.07
2018-07-04T02:55:06.223Z,20.83
2018-07-04T02:57:53.356Z,20.67
2018-07-04T03:00:40.258Z,21.53
2018-07-04T03:03:27.386Z,20.40
2018-07-04T03:06:14.300Z,22.87
2018-07-04T03:09:01.382Z,23.53
2018-07-04T03:11:48.366Z,24.43
2018-07-04T03:14:35.415Z,23.90
2018-07-04T03:17:21.817Z,25.17
2018-07-04T03:20:08.832Z,23.60
2018-07-04T03:22:55.687Z,23.47
2018-07-04T03:25:43.014Z,23.87
2018-07-04T03:28:29.578Z,22.50
2018-07-04T03:31:16.448Z,23.03
2018-07-04T03:34:03.298Z,23.13
2018-07-04T03:36:50.079Z,22.07
2018-07-04T03:39:37.057Z,21.80
2018-07-04T03:42:24.413Z,21.23
2018-07-04T03:45:11.192Z,23.70
2018-07-04T03:47:58.517Z,21.97
2018-07-04T03:50:44.960Z,21.77
2018-07-04T03:53:32.204Z,21.93
2018-07-04T03:56:19.186Z,20.40
2018-07-04T03:59:06.200Z,22.00
2018-07-04T04:01:52.974Z,21.07
2018-07-04T04:04:40.219Z,21.57
2018-07-04T04:07:26.921Z,22.53
2018-07-04T04:10:14.162Z,20.03
2018-07-04T04:13:00.903Z,20.53
2018-07-04T04:15:48.196Z,20.03
2018-07-04T04:18:34.688Z,24.53
2018-07-04T04:21:21.923Z,23.07
2018-07-04T04:24:08.812Z,20.93
2018-07-04T04:26:55.811Z,21.30
2018-07-04T04:29:42.767Z,20.83
2018-07-04T04:32:29.672Z,21.30
2018-07-04T04:35:16.503Z,21.13
2018-07-04T04:38:03.559Z,19.60
2018-07-04T04:40:50.279Z,21.57
2018-07-04T04:43:37.354Z,21.43
2018-07-04T04:46:24.105Z,20.30
2018-07-04T04:49:10.838Z,20.33
2018-07-04T04:51:57.375Z,18.97
2018-07-04T04:54:43.890Z,18.83
2018-07-04T04:57:30.450Z,18.60
2018-07-04T05:00:17.250Z,18.80
2018-07-04T05:03:03.895Z,17.50
2018-07-04T05:05:50.759Z,17.20
2018-07-04T05:08:37.439Z,17.63
2018-07-04T05:11:24.642Z,16.50
2018-07-04T05:14:11.310Z,16.53
2018-07-04T05:16:57.609Z,15.83
2018-07-04T05:19:43.994Z,15.00
2018-07-04T05:22:30.555Z,16.70
2018-07-04T05:25:17.359Z,17.80
2018-07-04T05:28:04.366Z,18.63
2018-07-04T05:30:51.271Z,18.47
2018-07-04T05:33:38.218Z,18.07
2018-07-04T05:36:25.101Z,17.00
2018-07-04T05:39:12.112Z,17.60
2018-07-04T05:41:58.831Z,18.60
2018-07-04T05:44:45.950Z,16.45
2018-07-04T05:47:32.952Z,17.32
2018-07-04T05:50:20.107Z,17.55
2018-07-04T05:53:06.998Z,18.12
2018-07-04T05:55:54.336Z,18.57
2018-07-04T05:58:41.069Z,19.07
2018-07-04T06:01:28.387Z,18.10
2018-07-04T06:04:15.143Z,20.62
2018-07-04T06:07:02.368Z,17.32
2018-07-04T06:09:49.023Z,19.00
2018-07-04T06:12:36.227Z,18.80
2018-07-04T06:15:22.908Z,19.27
2018-07-04T06:18:10.158Z,18.98
2018-07-04T06:20:56.860Z,19.52
2018-07-04T06:23:43.994Z,18.23
2018-07-04T06:26:30.779Z,18.50
2018-07-04T06:29:17.929Z,18.10
2018-07-04T06:32:04.611Z,18.40
2018-07-04T06:34:51.552Z,16.32
2018-07-04T06:37:41.407Z,15.58
2018-07-04T06:40:10.621Z,17.30
2018-07-04T06:42:39.019Z,17.10
2018-07-04T06:45:06.932Z,16.17
2018-07-04T06:47:35.171Z,18.37
2018-07-04T06:50:03.212Z,16.05
2018-07-04T06:52:31.127Z,17.75
2018-07-04T06:54:59.385Z,14.43
2018-07-04T06:57:27.386Z,14.58
2018-07-04T06:59:55.452Z,14.65
2018-07-04T07:02:23.904Z,15.40
2018-07-04T07:05:04.649Z,14.80
2018-07-04T07:07:52.084Z,15.18
2018-07-04T07:10:38.968Z,15.10
2018-07-04T07:13:25.681Z,14.70
2018-07-04T07:16:12.076Z,14.33
2018-07-04T07:18:59.130Z,16.05
2018-07-04T07:21:45.675Z,15.90
2018-07-04T07:24:32.876Z,16.45
2018-07-04T07:27:19.648Z,14.87
2018-07-04T07:30:06.902Z,15.08
2018-07-04T07:32:53.687Z,14.78
2018-07-04T07:35:40.511Z,13.90
2018-07-04T07:38:27.359Z,15.13
2018-07-04T07:41:14.265Z,15.50
2018-07-04T07:44:00.752Z,14.05
2018-07-04T07:46:47.430Z,14.90
2018-07-04T07:49:34.302Z,16.62
2018-07-04T07:52:21.603Z,15.25
2018-07-04T07:55:08.695Z,17.60
2018-07-04T07:57:55.979Z,14.98
2018-07-04T08:00:42.831Z,15.65
2018-07-04T08:03:30.071Z,15.85
2018-07-04T08:06:16.976Z,16.55
2018-07-04T08:09:04.827Z,15.53
2018-07-04T08:11:51.250Z,15.05
2018-07-04T08:14:38.330Z,16.20
2018-07-04T08:17:25.232Z,14.83
2018-07-04T08:20:12.174Z,19.90
2018-07-04T08:22:59.163Z,14.35
2018-07-04T08:25:47.272Z,14.38
2018-07-04T08:28:33.907Z,15.32
2018-07-04T08:31:20.956Z,14.43
2018-07-04T08:34:07.746Z,14.33
2018-07-04T08:36:54.987Z,16.02
2018-07-04T08:39:41.779Z,15.70
2018-07-04T08:42:29.010Z,14.63
2018-07-04T08:45:15.539Z,14.63
2018-07-04T08:48:02.635Z,14.65
2018-07-04T08:50:49.587Z,16.02
2018-07-04T08:53:36.871Z,15.28
2018-07-04T08:56:23.594Z,16.70
2018-07-04T08:59:10.716Z,16.23
2018-07-04T09:01:57.555Z,16.37
2018-07-04T09:04:44.411Z,15.08
2018-07-04T09:07:30.827Z,16.10
2018-07-04T09:10:17.519Z,16.10
2018-07-04T09:13:03.932Z,14.40
2018-07-04T09:15:50.963Z,16.00
2018-07-04T09:18:37.610Z,15.93
2018-07-04T09:21:24.243Z,16.17
2018-07-04T09:24:11.158Z,16.40
2018-07-04T09:26:58.410Z,16.77
2018-07-04T09:29:45.177Z,16.23
2018-07-04T09:32:32.460Z,15.05
2018-07-04T09:35:19.235Z,16.67
2018-07-04T09:38:06.523Z,16.70
2018-07-04T09:40:52.962Z,17.15
2018-07-04T09:43:39.771Z,16.85
2018-07-04T09:46:26.597Z,16.37
2018-07-04T09:49:13.439Z,14.50
2018-07-04T09:52:00.424Z,15.10
2018-07-04T09:54:47.455Z,15.13
2018-07-04T09:57:34.256Z,15.85
2018-07-04T10:00:25.492Z,16.27
2018-07-04T10:03:12.077Z,16.82
2018-07-04T10:05:59.215Z,16.12
2018-07-04T10:08:46.009Z,17.48
2018-07-04T10:11:33.643Z,15.55
2018-07-04T10:14:20.169Z,16.05
2018-07-04T10:17:06.889Z,15.45
2018-07-04T10:19:53.601Z,16.77
2018-07-04T10:22:40.863Z,16.32
2018-07-04T10:25:27.742Z,16.15
2018-07-04T10:28:14.935Z,15.85
2018-07-04T10:31:01.711Z,16.62
2018-07-04T10:33:49.624Z,15.80
2018-07-04T10:36:36.378Z,17.70
2018-07-04T10:39:23.713Z,16.70
2018-07-04T10:42:10.207Z,17.00
2018-07-04T10:44:56.549Z,16.80
2018-07-04T10:47:43.056Z,16.70
2018-07-04T10:50:29.619Z,15.75
2018-07-04T10:53:16.528Z,16.35
2018-07-04T10:56:03.120Z,18.52
2018-07-04T10:58:50.092Z,15.72
2018-07-04T11:01:36.696Z,16.95
2018-07-04T11:04:23.878Z,17.15
2018-07-04T11:07:10.441Z,16.48
2018-07-04T11:09:57.209Z,16.45
2018-07-04T11:12:44.432Z,15.23
2018-07-04T11:15:30.723Z,16.55
2018-07-04T11:18:17.580Z,16.20
2018-07-04T11:21:04.449Z,14.33
2018-07-04T11:23:51.368Z,15.70
2018-07-04T11:26:38.231Z,14.60
2018-07-04T11:29:25.603Z,13.83
2018-07-04T11:32:12.620Z,13.90
2018-07-04T11:34:59.534Z,13.93
2018-07-04T11:37:46.370Z,13.90
2018-07-04T11:40:33.731Z,13.93
2018-07-04T11:43:20.894Z,14.43
2018-07-04T11:45:58.015Z,13.88
2018-07-04T11:48:26.152Z,15.05
2018-07-04T11:50:56.132Z,15.40
2018-07-04T11:53:24.431Z,13.93
2018-07-04T11:55:52.556Z,14.80
2018-07-04T11:58:20.686Z,12.13
2018-07-04T12:00:49.138Z,9.55
2018-07-04T12:03:18.784Z,9.20
2018-07-04T12:05:59.809Z,9.70
2018-07-04T12:08:34.001Z,10.28
2018-07-04T12:11:02.555Z,10.48
2018-07-04T12:13:30.555Z,10.93
2018-07-04T12:15:58.606Z,11.20
2018-07-04T12:18:26.919Z,11.88
2018-07-04T12:20:54.991Z,10.58
2018-07-04T12:23:23.066Z,10.53
2018-07-04T12:25:51.492Z,11.78
2018-07-04T12:28:19.609Z,12.10
2018-07-04T12:30:47.700Z,10.32
2018-07-04T12:33:16.333Z,9.73
2018-07-04T12:35:44.458Z,10.45
2018-07-04T12:38:12.670Z,11.22
2018-07-04T12:40:40.729Z,10.18
2018-07-04T12:43:08.781Z,9.95
2018-07-04T12:45:39.547Z,11.15
2018-07-04T12:48:05.140Z,10.85
2018-07-04T12:50:34.003Z,11.35
2018-07-04T12:53:02.346Z,11.18
2018-07-04T12:55:44.754Z,9.83
2018-07-04T12:58:31.589Z,11.10
2018-07-04T13:01:18.884Z,11.25
2018-07-04T13:04:05.652Z,11.08
2018-07-04T13:06:53.028Z,12.37
2018-07-04T13:09:39.839Z,12.20
2018-07-04T13:12:27.300Z,10.20
2018-07-04T13:15:13.940Z,12.40
2018-07-04T13:18:00.992Z,12.23
2018-07-04T13:20:47.960Z,12.23
2018-07-04T13:23:35.233Z,13.65
2018-07-04T13:26:22.068Z,13.95
2018-07-04T13:29:09.237Z,15.13
2018-07-04T13:31:56.012Z,13.95
2018-07-04T13:34:43.257Z,14.43
2018-07-04T13:37:30.053Z,14.95
2018-07-04T13:40:16.714Z,17.75
2018-07-04T13:43:04.228Z,18.00
2018-07-04T13:45:51.179Z,13.15
2018-07-04T13:48:37.807Z,11.97
2018-07-04T13:51:24.770Z,10.28
2018-07-04T13:54:11.600Z,9.08
2018-07-04T13:56:58.653Z,9.55
2018-07-04T13:59:45.519Z,9.88
2018-07-04T14:02:32.431Z,10.75
2018-07-04T14:05:19.201Z,12.40
2018-07-04T14:08:06.371Z,9.25
2018-07-04T14:10:52.770Z,8.93
2018-07-04T14:13:39.643Z,7.62
2018-07-04T14:16:25.969Z,10.88
2018-07-04T14:19:13.208Z,7.85
2018-07-04T14:22:00.038Z,8.93
2018-07-04T14:24:47.402Z,9.60
2018-07-04T14:27:34.147Z,9.98
2018-07-04T14:30:20.926Z,10.08
2018-07-04T14:33:07.987Z,9.75
2018-07-04T14:35:55.072Z,11.30
2018-07-04T14:38:42.120Z,11.88
2018-07-04T14:41:28.810Z,12.53
2018-07-04T14:44:15.268Z,12.90
2018-07-04T14:47:02.027Z,13.20
2018-07-04T14:49:48.957Z,11.95
2018-07-04T14:52:35.876Z,11.35
2018-07-04T14:55:22.633Z,12.30
2018-07-04T14:58:09.904Z,12.80
2018-07-04T15:00:56.602Z,13.30
2018-07-04T15:03:44.144Z,12.82
2018-07-04T15:06:31.264Z,14.00
2018-07-04T15:09:18.590Z,16.05
2018-07-04T15:12:05.157Z,17.42
2018-07-04T15:14:52.119Z,16.23
2018-07-04T15:17:39.240Z,16.45
2018-07-04T15:20:26.245Z,25.35
2018-07-04T15:23:13.272Z,8.47
2018-07-04T15:26:00.688Z,5.63
2018-07-04T15:28:47.908Z,8.53
2018-07-04T15:31:35.334Z,11.50
2018-07-04T15:34:22.937Z,13.13
2018-07-04T15:37:10.032Z,15.10
2018-07-04T15:39:56.692Z,16.23
2018-07-04T15:42:43.775Z,22.07
2018-07-04T15:45:30.943Z,18.53
2018-07-04T15:48:18.324Z,25.07
2018-07-04T15:51:05.494Z,31.33
2018-07-04T15:53:53.224Z,31.77
2018-07-04T15:56:40.637Z,35.67
2018-07-04T15:59:28.035Z,43.17
2018-07-04T16:02:14.976Z,41.20
2018-07-04T16:05:02.505Z,44.53
2018-07-04T16:07:49.744Z,29.00
2018-07-04T16:10:37.393Z,19.40
2018-07-04T16:13:24.074Z,21.30
2018-07-04T16:16:11.292Z,26.20
2018-07-04T16:18:58.509Z,23.33
2018-07-04T16:21:46.135Z,18.13
2018-07-04T16:24:33.321Z,15.43
2018-07-04T16:27:20.894Z,19.13
2018-07-04T16:30:08.419Z,18.00
2018-07-04T16:32:55.843Z,21.30
2018-07-04T16:35:42.997Z,21.53
2018-07-04T16:38:29.970Z,23.40
2018-07-04T16:41:16.650Z,24.27
2018-07-04T16:44:04.324Z,25.87
2018-07-04T16:46:51.240Z,22.37
2018-07-04T16:49:38.972Z,22.90
2018-07-04T16:52:26.277Z,27.33
2018-07-04T16:55:13.715Z,25.87
2018-07-04T16:58:00.839Z,24.17
2018-07-04T17:00:48.369Z,25.33
2018-07-04T17:03:35.589Z,27.77
2018-07-04T17:06:23.313Z,24.97
2018-07-04T17:09:10.169Z,24.17
2018-07-04T17:11:57.269Z,22.47
2018-07-04T17:14:44.580Z,26.17
2018-07-04T17:17:31.668Z,27.33
2018-07-04T17:20:18.786Z,30.50
2018-07-04T17:23:06.653Z,30.10
2018-07-04T17:25:53.874Z,29.87
2018-07-04T17:28:41.218Z,37.00
2018-07-04T17:31:28.430Z,38.30
2018-07-04T17:34:15.684Z,41.20
2018-07-04T17:37:02.861Z,42.23
2018-07-04T17:39:49.658Z,40.70
2018-07-04T17:42:37.040Z,37.67
2018-07-04T17:45:24.689Z,34.77
2018-07-04T17:48:11.854Z,35.77
2018-07-04T17:50:59.454Z,34.13
2018-07-04T17:53:47.023Z,35.50
2018-07-04T17:56:34.648Z,35.33
2018-07-04T17:59:21.968Z,32.77
2018-07-04T18:02:09.392Z,30.07
2018-07-04T18:04:56.817Z,27.13
2018-07-04T18:07:45.043Z,29.57
2018-07-04T18:10:32.490Z,24.13
2018-07-04T18:13:20.682Z,19.00
2018-07-04T18:16:07.975Z,18.10
2018-07-04T18:18:55.572Z,18.33
2018-07-04T18:21:42.709Z,18.90
2018-07-04T18:24:30.144Z,21.07
2018-07-04T18:27:17.013Z,23.33
2018-07-04T18:30:04.196Z,24.73
2018-07-04T18:32:51.033Z,23.47
2018-07-04T18:35:38.739Z,29.73
2018-07-04T18:38:25.964Z,31.13
2018-07-04T18:41:13.772Z,31.30
2018-07-04T18:44:00.925Z,35.93
2018-07-04T18:46:48.417Z,32.83
2018-07-04T18:49:35.655Z,32.00
2018-07-04T18:52:22.724Z,34.17
2018-07-04T18:55:09.419Z,34.47
2018-07-04T18:57:56.495Z,34.13
2018-07-04T19:00:43.356Z,32.50
2018-07-04T19:03:31.045Z,29.87
2018-07-04T19:06:18.392Z,26.37
2018-07-04T19:09:06.906Z,24.90
2018-07-04T19:11:54.132Z,29.13
2018-07-04T19:14:41.798Z,29.97
2018-07-04T19:17:29.291Z,27.20
2018-07-04T19:20:17.022Z,29.80
2018-07-04T19:23:04.434Z,29.20
2018-07-04T19:25:51.094Z,30.73
2018-07-04T19:28:38.203Z,32.23
2018-07-04T19:31:24.943Z,32.47
2018-07-04T19:34:12.218Z,34.23
2018-07-04T19:36:58.878Z,23.77
2018-07-04T19:39:46.047Z,19.97
2018-07-04T19:42:32.725Z,18.90
2018-07-04T19:45:19.696Z,18.23
2018-07-04T19:48:06.625Z,19.97
2018-07-04T19:50:53.529Z,18.23
2018-07-04T19:53:39.934Z,17.90
2018-07-04T19:56:26.663Z,19.90
2018-07-04T19:59:13.078Z,17.27
2018-07-04T20:02:00.116Z,15.70
2018-07-04T20:04:46.778Z,14.60
2018-07-04T20:07:33.978Z,20.00
2018-07-04T20:10:20.768Z,23.07
2018-07-04T20:13:07.676Z,24.93
2018-07-04T20:15:54.271Z,27.63
2018-07-04T20:18:41.160Z,27.07
2018-07-04T20:21:28.039Z,29.33
2018-07-04T20:24:15.250Z,32.80
2018-07-04T20:27:01.767Z,32.10
2018-07-04T20:29:48.781Z,31.83
2018-07-04T20:32:35.817Z,29.53
2018-07-04T20:35:22.920Z,31.47
2018-07-04T20:38:09.490Z,31.00
2018-07-04T20:40:56.746Z,34.33
2018-07-04T20:43:43.535Z,34.23
2018-07-04T20:46:30.466Z,34.20
2018-07-04T20:49:17.701Z,31.17
2018-07-04T20:52:04.583Z,28.17
2018-07-04T20:54:51.568Z,27.03
2018-07-04T20:57:37.880Z,25.47
2018-07-04T21:00:24.952Z,24.00
2018-07-04T21:03:11.664Z,24.37
2018-07-04T21:05:58.661Z,20.23
2018-07-04T21:08:45.303Z,21.30
2018-07-04T21:11:32.594Z,18.27
2018-07-04T21:14:19.118Z,18.33
2018-07-04T21:17:06.012Z,19.50
2018-07-04T21:19:52.747Z,19.87
2018-07-04T21:22:40.248Z,17.40
2018-07-04T21:25:26.819Z,19.17
2018-07-04T21:28:13.579Z,18.53
2018-07-04T21:31:00.472Z,19.10
2018-07-04T21:33:47.904Z,17.23
2018-07-04T21:36:34.796Z,16.93
2018-07-04T21:39:21.965Z,14.87
2018-07-04T21:42:08.718Z,17.57
2018-07-04T21:44:55.563Z,17.43
2018-07-04T21:47:42.654Z,17.17
2018-07-04T21:50:29.966Z,16.83
2018-07-04T21:53:16.423Z,15.27
2018-07-04T21:56:02.880Z,16.33
2018-07-04T21:58:49.742Z,13.43
2018-07-04T22:01:36.947Z,12.27
2018-07-04T22:04:23.512Z,11.80
2018-07-04T22:07:10.928Z,13.20
2018-07-04T22:09:57.666Z,12.70
2018-07-04T22:12:44.748Z,13.97
2018-07-04T22:15:31.446Z,14.43
2018-07-04T22:18:18.530Z,15.97
2018-07-04T22:21:05.096Z,16.00
2018-07-04T22:23:51.934Z,18.27
2018-07-04T22:26:38.286Z,16.60
2018-07-04T22:29:24.839Z,15.97
2018-07-04T22:32:11.411Z,23.40
2018-07-04T22:34:58.075Z,13.73
2018-07-04T22:37:45.485Z,12.93
2018-07-04T22:40:32.190Z,14.67
2018-07-04T22:43:19.330Z,15.67
2018-07-04T22:46:06.134Z,14.47
2018-07-04T22:48:52.834Z,15.53
2018-07-04T22:51:39.650Z,13.03
2018-07-04T22:54:26.219Z,13.53
2018-07-04T22:57:12.860Z,11.70
2018-07-04T23:00:00.179Z,13.23
2018-07-04T23:02:46.902Z,11.37
2018-07-04T23:05:34.134Z,12.50
2018-07-04T23:08:21.143Z,13.07
2018-07-04T23:11:08.067Z,14.13
2018-07-04T23:13:54.859Z,14.00
2018-07-04T23:16:42.106Z,14.80
2018-07-04T23:19:28.526Z,15.70
2018-07-04T23:22:15.318Z,15.80
2018-07-04T23:25:02.004Z,13.87
2018-07-04T23:27:48.763Z,13.80
2018-07-04T23:30:35.518Z,15.37
2018-07-04T23:33:22.433Z,15.67
2018-07-04T23:36:09.686Z,15.73
2018-07-04T23:38:56.472Z,14.70
2018-07-04T23:41:43.919Z,13.67
2018-07-04T23:44:30.495Z,12.90
2018-07-04T23:47:17.315Z,14.80
2018-07-04T23:50:03.648Z,13.87
2018-07-04T23:52:50.371Z,11.03
2018-07-04T23:55:37.236Z,12.20
2018-07-04T23:58:24.586Z,12.07
